Weather at Muscat International Airport

Public forecast

Using degrees Celsius for public forecast. Weather courtesy of forecast.io.

Current aviation weather report (METAR) for Muscat International Airport

Retrieved 2021/08/06 02:50 UTC (27 minutes ago):

OOMS 060250Z 08007KT 7000 NSC 32/29 Q0997 NOSIG

Aviation forecast (TAF) for Muscat International Airport

Retrieved 2021-08-06 00:00 UTC (3 hours ago):

TAF OOMS 052300Z 0600/0706 30005KT 8000 NSC BECMG 0605/0607 05012KT BECMG 0618/0620 22008KT BECMG 0702/0704 07008KT